Bataysk — UBXE3 — position and weather

sailwx.info

Track history (hours):
 
Tides and Currents Weather Stations Pressure Air Temp Water Temp Dewpoint Dewpoint Depression Visibility Wind Speed Wind Dir Waves Ship Positions

Bataysk

Last reported at 2017-Dec-16 21:46 UTC. Time now 2017-Dec-18 07:16 UTC.
Position N 45°31' E 036°45'.

Length 130 m; draft 2.7 m.

Type: Cargo ship. MMSI: 273347320.

Date/timePositionNaut miles runAvg speedWind from/ knotsBaromVisibWave heightAir tempDewpointWater temp
2017-Dec-16 21:46N 45°31' E 036°45'2 6.7
2017-Dec-16 21:30N 45°29' E 036°43'3 6.7
2017-Dec-16 21:00N 45°26' E 036°42'3 6.8
2017-Dec-16 20:30N 45°23' E 036°40'3 6.8
2017-Dec-16 20:00N 45°21' E 036°37'4 7.4
2017-Dec-16 19:30N 45°19' E 036°32'3 6.8
2017-Dec-16 19:00N 45°17' E 036°29'3 6.9
2017-Dec-16 18:30N 45°13' E 036°29'8 0.6
2017-Dec-16 06:22N 45°06' E 036°33'2 5.2
2017-Dec-16 05:57N 45°08' E 036°31'3 5.9
2017-Dec-16 05:29N 45°10' E 036°28'3 6.0
2017-Dec-16 05:00N 45°13' E 036°28'3 5.8
2017-Dec-16 04:30N 45°16' E 036°28'3 5.5
2017-Dec-16 03:59N 45°18' E 036°30'3 6.3
2017-Dec-16 03:30N 45°20' E 036°34'3 6.6
2017-Dec-16 03:00N 45°21' E 036°38'3 6.1
2017-Dec-16 02:30N 45°24' E 036°40'3 5.4
2017-Dec-16 02:00N 45°26' E 036°39'2 4.4
2017-Dec-16 01:30N 45°28' E 036°37'1 1.4
2017-Dec-16 01:00N 45°28' E 036°38'3 5.7
2017-Dec-16 00:30N 45°29' E 036°42'3 5.4
2017-Dec-16 00:00N 45°31' E 036°45'  
2017-Dec-12 02:59N 45°27' E 036°42'3 7.3
2017-Dec-12 02:30N 45°24' E 036°41'4 7.1
2017-Dec-12 02:00N 45°21' E 036°38'4 7.6
2017-Dec-12 01:30N 45°19' E 036°33'4 7.0
2017-Dec-12 00:59N 45°17' E 036°29'4 7.1
2017-Dec-12 00:25N 45°13' E 036°28'  
Track history (hours):
 
Tides and Currents Weather Stations Pressure Air Temp Water Temp Dewpoint Dewpoint Depression Visibility Wind Speed Wind Dir Waves Ship Positions

Bataysk

Last reported at 2017-Dec-16 21:46 UTC. Time now 2017-Dec-18 07:16 UTC.
Position N 45°31' E 036°45'.

Length 130 m; draft 2.7 m.

Type: Cargo ship. MMSI: 273347320.

Date/timePositionNaut miles runAvg speedWind from/ knotsBaromVisibWave heightAir tempDewpointWater temp
2017-Dec-16 21:46N 45°31' E 036°45'2 6.7
2017-Dec-16 21:30N 45°29' E 036°43'3 6.7
2017-Dec-16 21:00N 45°26' E 036°42'3 6.8
2017-Dec-16 20:30N 45°23' E 036°40'3 6.8
2017-Dec-16 20:00N 45°21' E 036°37'4 7.4
2017-Dec-16 19:30N 45°19' E 036°32'3 6.8
2017-Dec-16 19:00N 45°17' E 036°29'3 6.9
2017-Dec-16 18:30N 45°13' E 036°29'8 0.6
2017-Dec-16 06:22N 45°06' E 036°33'2 5.2
2017-Dec-16 05:57N 45°08' E 036°31'3 5.9
2017-Dec-16 05:29N 45°10' E 036°28'3 6.0
2017-Dec-16 05:00N 45°13' E 036°28'3 5.8
2017-Dec-16 04:30N 45°16' E 036°28'3 5.5
2017-Dec-16 03:59N 45°18' E 036°30'3 6.3
2017-Dec-16 03:30N 45°20' E 036°34'3 6.6
2017-Dec-16 03:00N 45°21' E 036°38'3 6.1
2017-Dec-16 02:30N 45°24' E 036°40'3 5.4
2017-Dec-16 02:00N 45°26' E 036°39'2 4.4
2017-Dec-16 01:30N 45°28' E 036°37'1 1.4
2017-Dec-16 01:00N 45°28' E 036°38'3 5.7
2017-Dec-16 00:30N 45°29' E 036°42'3 5.4
2017-Dec-16 00:00N 45°31' E 036°45'  
2017-Dec-12 02:59N 45°27' E 036°42'3 7.3
2017-Dec-12 02:30N 45°24' E 036°41'4 7.1
2017-Dec-12 02:00N 45°21' E 036°38'4 7.6
2017-Dec-12 01:30N 45°19' E 036°33'4 7.0
2017-Dec-12 00:59N 45°17' E 036°29'4 7.1
2017-Dec-12 00:25N 45°13' E 036°28'  

Dump ship's entire track history